• Join FlightAware (Why Join?)
  • Login
  • US Flag 
11:02AM EST


 

Airport Tracker/Info


-or-


 

Live Flight TrackerFlight Track Log ✈ SWA2336 ✈ 04-Jul-2014 ✈ KPDX - KDEN

Flight Track Log - Related Links

Times and Time Zones

All times are in EDT time to prevent confusion due to time zone crossing. See the SWA2336 flight status page for this flight to view local times or setup timezone preferences in your user account.

Time Position Orientation Groundspeed Altitude Reporting Facility
EDT Latitude Longitude Course Direction KTS MPH feet Rate Location/Type
05:11PM 45.5942 -122.5978 298° West 153 176 500  Level Seattle Center
05:11PM 45.6022 -122.6192 298° West 161 185 1,400 1,920 Climbing Seattle Center
05:12PM 45.6097 -122.6439 293° West 177 204 1,900 1,560 Climbing Seattle Center
05:12PM 45.6231 -122.6881 293° West 191 220 3,000 1,620 Climbing Seattle Center
05:13PM 45.6358 -122.7197 300° West 236 272 3,600 2,040 Climbing Seattle Center
05:13PM 45.6583 -122.7736 301° West 249 287 5,100 2,820 Climbing Seattle Center
05:14PM 45.6261 -122.8619 242° Southwest 276 318 8,300 2,760 Climbing Seattle Center
05:15PM 45.5678 -122.7983 143° Southeast 304 350 10,800 2,160 Climbing Seattle Center
05:16PM 45.5219 -122.6772 118° Southeast 354 407 12,700 2,400 Climbing Seattle Center
05:17PM 45.4697 -122.5375 118° Southeast 373 429 15,700 2,460 Climbing Seattle Center
05:18PM 45.4197 -122.4056 118° Southeast 380 437 17,800 1,920 Climbing Seattle Center
05:19PM 45.3711 -122.2781 118° Southeast 400 460 19,700 1,920 Climbing Seattle Center
05:20PM 45.3150 -122.1325 119° Southeast 416 479 21,700 1,800 Climbing Seattle Center
05:21PM 45.2567 -121.9817 119° Southeast 430 495 23,400 1,620 Climbing Seattle Center
05:22PM 45.2142 -121.8197 110° East 450 518 25,100 1,620 Climbing Seattle Center
05:23PM 45.1711 -121.6508 110° East 453 521 26,800 1,560 Climbing Seattle Center
05:25PM 45.1175 -121.4428 110° East 468 539 28,300 1,260 Climbing Seattle Center
05:26PM 45.0711 -121.2661 110° East 477 549 29,400 1,200 Climbing Seattle Center
05:27PM 45.0236 -121.0839 110° East 491 565 30,800 1,440 Climbing Seattle Center
05:28PM 44.9750 -120.9053 111° Southeast 491 565 32,400 1,320 Climbing Seattle Center
05:29PM 44.9283 -120.7275 110° East 488 562 33,600 1,140 Climbing Seattle Center
05:30PM 44.8797 -120.5508 111° Southeast 486 559 34,800 1,080 Climbing Seattle Center
05:31PM 44.8317 -120.3753 111° Southeast 486 559 35,900 840 Climbing Seattle Center
05:32PM 44.7842 -120.2025 111° Southeast 485 558 36,600 540 Climbing Seattle Center
05:33PM 44.7361 -120.0286 111° Southeast 485 558 37,000 180 Climbing Seattle Center
05:34PM 44.6794 -119.8225 111° Southeast 483 556 37,000  Level Seattle Center
05:35PM 44.6303 -119.6492 112° Southeast 483 556 37,000  Level Seattle Center
05:36PM 44.5808 -119.4786 112° Southeast 480 552 37,000  Level Seattle Center
05:37PM 44.5306 -119.3078 112° Southeast 479 551 37,000  Level Seattle Center
05:38PM 44.4806 -119.1389 112° Southeast 475 547 37,000  Level Seattle Center
05:39PM 44.4306 -118.9700 112° Southeast 475 547 37,000  Level Seattle Center
05:40PM 44.3811 -118.8028 112° Southeast 472 543 37,000  Level Seattle Center
05:41PM 44.3297 -118.6356 113° Southeast 471 542 37,000  Level Seattle Center
05:42PM 44.2775 -118.4683 114° Southeast 471 542 37,000  Level Seattle Center
05:43PM 44.2269 -118.2986 113° Southeast 472 543 37,000  Level Seattle Center
05:44PM 44.1697 -118.1128 113° Southeast 473 544 37,000  Level Seattle Center
05:45PM 44.1181 -117.9447 113° Southeast 474 545 37,000  Level Seattle Center
05:46PM 44.0642 -117.7764 114° Southeast 475 547 37,000  Level Seattle Center
05:47PM 44.0106 -117.6092 114° Southeast 476 548 37,000  Level Seattle Center
05:48PM 43.9350 -117.3744 114° Southeast 472 543 37,000  Level Salt Lake Center
05:49PM 43.8831 -117.2108 114° Southeast 467 537 37,000  Level Salt Lake Center
05:50PM 43.8314 -117.0478 114° Southeast 467 537 37,000  Level Salt Lake Center
05:51PM 43.7667 -116.8483 114° Southeast 473 544 37,000  Level Salt Lake Center
05:52PM 43.7131 -116.6839 114° Southeast 473 544 37,000  Level Salt Lake Center
05:53PM 43.6603 -116.5206 114° Southeast 471 542 37,000  Level Salt Lake Center
05:54PM 43.6069 -116.3553 114° Southeast 472 543 37,000  Level Salt Lake Center
05:55PM 43.5531 -116.1925 115° Southeast 472 543 37,000  Level Salt Lake Center
05:56PM 43.5219 -116.0158 104° East 475 547 37,000  Level Salt Lake Center
05:57PM 43.4903 -115.8411 104° East 475 547 37,000  Level Salt Lake Center
05:58PM 43.4533 -115.6303 104° East 475 547 37,000  Level Salt Lake Center
05:59PM 43.4211 -115.4556 104° East 475 547 37,000  Level Salt Lake Center
06:00PM 43.3892 -115.2800 104° East 475 547 37,000  Level Salt Lake Center
06:02PM 43.3567 -115.1064 104° East 474 545 37,000  Level Salt Lake Center
06:03PM 43.3250 -114.9336 104° East 472 543 37,000  Level Salt Lake Center
06:04PM 43.2931 -114.7617 104° East 470 541 37,000  Level Salt Lake Center
06:05PM 43.2697 -114.5886 100° East 468 539 37,000  Level Salt Lake Center
06:06PM 43.2478 -114.4150 100° East 467 537 37,000  Level Salt Lake Center
06:07PM 43.2208 -114.2089 100° East 463 533 37,000  Level Salt Lake Center
06:08PM 43.1986 -114.0375 100° East 462 532 37,000  Level Salt Lake Center
06:09PM 43.1761 -113.8658 100° East 458 527 37,000  Level Salt Lake Center
06:10PM 43.1519 -113.6964 101° East 458 527 37,000  Level Salt Lake Center
06:11PM 43.1297 -113.5253 100° East 457 526 37,000  Level Salt Lake Center
06:12PM 43.1064 -113.3536 100° East 458 527 37,000  Level Salt Lake Center
06:13PM 43.0839 -113.1828 100° East 458 527 37,000  Level Salt Lake Center
06:14PM 43.0603 -113.0106 101° East 458 527 37,000  Level Salt Lake Center
06:15PM 43.0386 -112.8403 100° East 458 527 37,000  Level Salt Lake Center
06:16PM 43.0122 -112.6350 100° East 458 527 37,000  Level Salt Lake Center
06:17PM 42.9472 -112.4908 122° Southeast 462 532 37,000  Level Salt Lake Center
06:18PM 42.8281 -112.4378 162° South 455 524 37,000  Level Salt Lake Center
06:19PM 42.7031 -112.4069 170° South 456 525 37,000  Level Salt Lake Center
06:20PM 42.5956 -112.3542 160° South 456 525 37,000  Level Salt Lake Center
06:21PM 42.5358 -112.1642 113° Southeast 456 525 37,000  Level Salt Lake Center
06:22PM 42.4917 -112.0031 110° East 456 525 37,000  Level Salt Lake Center
06:23PM 42.4450 -111.8408 111° Southeast 458 527 37,000  Level Salt Lake Center
06:24PM 42.3981 -111.6775 111° Southeast 464 534 37,000  Level Salt Lake Center
06:25PM 42.3511 -111.5139 111° Southeast 464 534 37,000  Level Salt Lake Center
06:26PM 42.3053 -111.3500 111° Southeast 466 536 37,000  Level Salt Lake Center
06:27PM 42.2575 -111.1881 112° Southeast 466 536 37,000  Level Salt Lake Center
06:28PM 42.2533 -111.0169 92° East 453 521 37,000  Level Salt Lake Center
06:29PM 42.2669 -110.8431 84° East 453 521 37,000  Level Salt Lake Center
06:30PM 42.2853 -110.6542 82° East 454 522 37,000  Level Salt Lake Center
06:31PM 42.3050 -110.4933 81° East 454 522 37,000  Level Salt Lake Center
06:32PM 42.3289 -110.3056 80° East 454 522 37,000  Level Salt Lake Center
06:33PM 42.3475 -110.1444 81° East 454 522 37,000  Level Salt Lake Center
06:34PM 42.3683 -109.9836 80° East 454 522 37,000  Level Salt Lake Center
06:35PM 42.3672 -109.7908 90° East 456 525 37,000  Level Salt Lake Center
06:36PM 42.3386 -109.6369 104° East 447 514 37,000  Level Salt Lake Center
06:37PM 42.2956 -109.4875 111° Southeast 444 511 37,000  Level Salt Lake Center
06:38PM 42.2106 -109.3417 128° Southeast 446 513 37,000  Level Salt Lake Center
06:39PM 42.1133 -109.2478 144° Southeast 448 516 37,000  Level Salt Lake Center
06:40PM 41.9889 -109.1639 153° Southeast 448 516 37,000  Level Salt Lake Center
06:41PM 41.8692 -109.1481 174° South 450 518 37,000  Level Salt Lake Center
06:42PM 41.7497 -109.1508 181° South 450 518 37,000  Level Salt Lake Center
06:43PM 41.6133 -109.1517 180° South 443 510 37,000  Level Salt Lake Center
06:44PM 41.5022 -109.1506 180° South 427 491 37,000  Level Salt Lake Center
06:45PM 41.3758 -109.1433 178° South 427 491 37,000  Level Salt Lake Center
06:46PM 41.2678 -109.0858 158° South 440 506 37,000  Level Salt Lake Center
06:48PM 41.2181 -108.9108 111° Southeast 459 528 37,000  Level Salt Lake Center
06:49PM 41.1814 -108.7558 107° East 460 529 37,000  Level Salt Lake Center
06:50PM 41.1372 -108.5744 108° East 463 533 37,000  Level Salt Lake Center
06:51PM 41.1139 -108.4108 101° East 469 540 37,000  Level Salt Lake Center
06:52PM 41.1022 -108.2136 94° East 479 551 37,000  Level Salt Lake Center
06:52PM 41.0981 -108.1294 94° East 480 552 37,000  Level Denver Center
06:53PM 41.0886 -107.9589 94° East 484 557 37,000  Level Denver Center
06:54PM 41.0958 -107.7906 87° East 487 560 37,000  Level Denver Center
06:55PM 41.1664 -107.6192 61° Northeast 476 548 37,000  Level Denver Center
06:56PM 41.2269 -107.4708 61° Northeast 478 550 37,000  Level Denver Center
06:57PM 41.2178 -107.2694 93° East 495 570 37,000  Level Denver Center
06:58PM 41.1900 -107.0992 102° East 495 570 37,000  Level Denver Center
06:59PM 41.1528 -106.9325 106° East 491 565 37,000  Level Denver Center
07:00PM 41.1014 -106.7422 110° East 490 564 37,000  Level Denver Center
07:01PM 41.0639 -106.5781 107° East 490 564 37,000  Level Denver Center
07:02PM 41.1536 -106.4281 52° Northeast 490 564 37,000 -900 Level Denver Center
07:03PM 41.2647 -106.4592 348° North 451 519 35,200 -1,680 Descending Denver Center
07:04PM 41.2775 -106.5961 277° West 414 476 33,700 -1,320 Descending Denver Center
07:05PM 41.1519 -106.6153 187° South 450 518 32,600 -1,020 Descending Denver Center
07:06PM 41.0850 -106.4678 121° Southeast 496 571 31,700 -1,020 Descending Denver Center
07:07PM 41.0200 -106.2850 115° Southeast 493 567 30,600 -1,080 Descending Denver Center
07:08PM 40.9608 -106.1228 116° Southeast 494 568 29,600 -1,020 Descending Denver Center
07:09PM 40.9044 -105.9589 114° Southeast 492 566 28,600 -1,080 Descending Denver Center
07:10PM 40.8497 -105.8036 115° Southeast 473 544 27,500 -1,140 Descending Denver Center
07:11PM 40.8003 -105.6533 113° Southeast 453 521 26,400 -1,140 Descending Denver Center
07:13PM 40.7619 -105.5006 108° East 444 511 25,300 -1,320 Descending Denver Center
07:14PM 40.7311 -105.3553 106° East 415 478 23,800 -1,680 Descending Denver Center
07:15PM 40.7067 -105.2111 103° East 412 474 21,900 -2,100 Descending Denver Center
07:16PM 40.7028 -105.0408 92° East 410 472 19,600 -2,040 Descending Denver Center
07:17PM 40.7025 -104.8947 90° East 406 467 17,800 -1,860 Descending Denver Center
07:18PM 40.6625 -104.7736 113° Southeast 387 445 15,900 -1,920 Descending Denver Center
07:19PM 40.5769 -104.7003 147° Southeast 366 421 13,900 -1,320 Descending Denver Center
07:20PM 40.4797 -104.6800 171° South 317 365 13,200 -600 Descending Denver Center
07:21PM 40.4056 -104.6861 184° South 268 308 12,800 -900 Descending Denver Center
07:22PM 40.3342 -104.6881 181° South 256 295 11,400 -1,380 Descending Denver Center
07:23PM 40.2661 -104.6894 181° South 250 288 10,100 -1,320 Descending Denver Center
07:24PM 40.1931 -104.6906 181° South 244 281 8,700 -1,200 Descending Denver Center
07:25PM 40.1264 -104.6919 181° South 241 277 7,700 -900 Descending Denver Center
07:26PM 40.0611 -104.6936 181° South 237 273 6,900 -360 Descending Denver Center
07:27PM 40.0042 -104.6939 180° South 206 237 7,000 -300 Climbing Denver Center
07:28PM 39.9536 -104.6947 181° South 169 194 6,400 -720 Descending Denver Center
07:29PM 39.9122 -104.6961 181° South 154 177 5,600 -540 Descending Denver Center
07:30PM 39.8739 -104.6961 180° South 144 166 5,300 -300 Descending Denver Center
07:32PM 39.8617 -104.6732 180° South  Level Estimated
07:39PM 39.8617 -104.6732 180° South  Level Estimated
07:40PM 39.8617 -104.6732 180° South  Level Estimated